Time;durP1;ratioP1;P1;durP2;ratioP2;P2;SDS_P1;SDS_P2;PMS_P1;PMS_P2;Temp;Humidity;BMP_temperature;BMP_pressure;BME280_temperature;BME280_humidity;BME280_pressure;Samples;Min_cycle;Max_cycle;Signal;HPM_P1;HPM_P2
2023/02/23 00:00:26;;;;;;;22.53;19.10;;;10.60;99.90;;;;;;10467988;28;20197;-81
2023/02/23 00:05:31;;;;;;;20.93;17.80;;;10.70;99.90;;;;;;10443557;28;20725;-81
2023/02/23 00:10:35;;;;;;;20.67;18.47;;;10.80;99.90;;;;;;10467151;28;20268;-80
2023/02/23 00:15:37;;;;;;;23.93;21.10;;;10.90;99.70;;;;;;10466853;28;20233;-80
2023/02/23 00:20:46;;;;;;;19.30;17.40;;;10.90;99.80;;;;;;10466115;28;20641;-81
2023/02/23 00:25:50;;;;;;;19.40;17.43;;;10.90;99.80;;;;;;10437312;28;20239;-80
2023/02/23 00:30:52;;;;;;;19.70;17.70;;;10.90;99.90;;;;;;10458042;28;20271;-81
2023/02/23 00:35:54;;;;;;;20.07;18.00;;;10.90;99.90;;;;;;10428675;28;20517;-80
2023/02/23 00:40:57;;;;;;;20.30;18.03;;;11.00;99.90;;;;;;10444387;28;20204;-81
2023/02/23 00:46:04;;;;;;;22.43;19.87;;;10.90;99.90;;;;;;10437370;28;20220;-81
2023/02/23 00:51:06;;;;;;;24.90;20.17;;;10.90;99.90;;;;;;10443822;28;20218;-79
2023/02/23 00:56:11;;;;;;;22.87;20.50;;;10.80;99.90;;;;;;10434691;28;20248;-81
2023/02/23 01:01:14;;;;;;;26.30;23.60;;;10.70;99.90;;;;;;10448559;28;20233;-79
2023/02/23 01:06:17;;;;;;;27.80;25.00;;;10.60;99.90;;;;;;10452342;28;20267;-80
2023/02/23 01:11:23;;;;;;;28.33;25.43;;;10.50;99.90;;;;;;10460836;28;20221;-80
2023/02/23 01:16:28;;;;;;;30.20;27.30;;;10.40;99.90;;;;;;10464782;28;20218;-79
2023/02/23 01:21:31;;;;;;;30.83;27.77;;;10.40;99.90;;;;;;10468145;28;20205;-80
2023/02/23 01:26:38;;;;;;;31.60;28.53;;;10.40;99.90;;;;;;10465436;28;20252;-80
2023/02/23 01:31:42;;;;;;;31.87;28.60;;;10.30;99.90;;;;;;10472359;28;20245;-81
2023/02/23 01:36:45;;;;;;;35.60;32.10;;;10.30;99.90;;;;;;10464675;28;20213;-80
2023/02/23 01:41:50;;;;;;;33.20;30.00;;;10.40;99.90;;;;;;10434770;28;20190;-80
2023/02/23 01:46:52;;;;;;;32.83;29.63;;;10.40;99.90;;;;;;10444198;28;20223;-80
2023/02/23 01:52:00;;;;;;;34.07;30.67;;;10.40;99.90;;;;;;10460987;28;20297;-80
2023/02/23 01:57:07;;;;;;;35.60;32.00;;;10.40;99.90;;;;;;10459838;28;20625;-81
2023/02/23 02:02:09;;;;;;;33.97;30.60;;;10.50;99.90;;;;;;10453594;28;20656;-80
2023/02/23 02:07:13;;;;;;;33.90;30.70;;;10.50;99.90;;;;;;10470997;28;20667;-80
2023/02/23 02:12:17;;;;;;;34.00;30.53;;;10.50;99.90;;;;;;10433246;28;20193;-80
2023/02/23 02:17:31;;;;;;;33.60;30.20;;;10.50;99.90;;;;;;10460839;28;20212;-80
2023/02/23 02:23:07;;;;;;;33.90;30.50;;;10.50;99.90;;;;;;10466040;28;20198;-80
2023/02/23 02:28:30;;;;;;;32.50;29.40;;;10.50;99.90;;;;;;10426809;28;20221;-82
2023/02/23 02:33:57;;;;;;;33.83;30.50;;;10.50;99.90;;;;;;10444094;28;20223;-81
2023/02/23 02:39:16;;;;;;;34.87;31.40;;;10.50;99.90;;;;;;10449489;28;20204;-81
2023/02/23 02:44:27;;;;;;;35.37;31.77;;;10.50;99.90;;;;;;10444442;28;20224;-81
2023/02/23 02:49:32;;;;;;;34.77;31.17;;;10.50;99.90;;;;;;10445935;28;20677;-81
2023/02/23 02:54:39;;;;;;;32.47;29.20;;;10.60;99.90;;;;;;10461925;28;20677;-80
2023/02/23 04:22:26;;;;;;;19.50;17.70;;;10.80;99.90;;;;;;10456373;28;20193;-80
2023/02/23 04:27:28;;;;;;;21.90;19.90;;;10.80;99.90;;;;;;10472717;28;20252;-80
2023/02/23 04:32:30;;;;;;;23.00;20.87;;;10.80;99.90;;;;;;10473990;28;20206;-80
2023/02/23 04:37:34;;;;;;;26.97;24.20;;;10.80;99.90;;;;;;10474772;28;20219;-80
2023/02/23 04:42:37;;;;;;;22.73;20.50;;;10.80;99.90;;;;;;10457200;28;20190;-80
2023/02/23 04:47:40;;;;;;;18.53;16.73;;;10.90;99.90;;;;;;10441669;28;20217;-80
2023/02/23 04:52:43;;;;;;;19.90;17.97;;;10.90;99.90;;;;;;10477454;28;20194;-80
2023/02/23 04:57:46;;;;;;;19.20;17.40;;;10.90;99.90;;;;;;10471951;28;20690;-80
2023/02/23 05:02:48;;;;;;;18.00;16.50;;;10.90;99.90;;;;;;10440961;28;20204;-80
2023/02/23 05:07:53;;;;;;;16.67;15.07;;;10.90;99.90;;;;;;10473364;28;20290;-80
2023/02/23 05:12:55;;;;;;;18.23;16.57;;;10.90;99.90;;;;;;10452987;28;20205;-80
2023/02/23 05:17:57;;;;;;;20.63;18.60;;;10.90;99.90;;;;;;10457269;28;20690;-80
2023/02/23 05:23:00;;;;;;;21.27;19.17;;;10.80;99.90;;;;;;10476862;28;20614;-80
2023/02/23 05:28:02;;;;;;;20.93;18.93;;;10.90;99.90;;;;;;10476312;28;20249;-80
2023/02/23 05:33:06;;;;;;;19.40;17.60;;;10.90;99.90;;;;;;10471407;28;20190;-80
2023/02/23 05:38:11;;;;;;;15.60;14.20;;;10.90;99.90;;;;;;10459027;28;20194;-79
2023/02/23 05:43:13;;;;;;;17.30;15.80;;;10.80;99.90;;;;;;10441745;28;20564;-80
2023/02/23 05:48:22;;;;;;;16.13;14.83;;;10.80;99.90;;;;;;10455593;28;20260;-80
2023/02/23 05:53:28;;;;;;;18.17;16.67;;;10.80;99.90;;;;;;10449430;28;20236;-80
2023/02/23 05:58:30;;;;;;;16.53;15.13;;;10.80;99.90;;;;;;10458530;28;20194;-79
2023/02/23 06:03:33;;;;;;;16.93;15.53;;;10.70;99.90;;;;;;10462335;28;20241;-80
2023/02/23 06:08:37;;;;;;;16.37;14.80;;;10.70;99.90;;;;;;10460875;28;20310;-80
2023/02/23 06:13:39;;;;;;;15.37;13.97;;;10.80;99.90;;;;;;10462379;28;20222;-80
2023/02/23 06:18:41;;;;;;;15.93;14.30;;;10.70;99.90;;;;;;10443603;28;20202;-80
2023/02/23 06:23:44;;;;;;;16.33;15.03;;;10.80;99.90;;;;;;10463024;28;20217;-80
2023/02/23 06:28:46;;;;;;;16.17;14.57;;;10.80;99.90;;;;;;10460625;28;20272;-80
2023/02/23 06:33:49;;;;;;;17.93;15.30;;;10.70;99.90;;;;;;10453757;28;20701;-79
2023/02/23 06:38:57;;;;;;;16.60;15.10;;;10.80;99.90;;;;;;10467665;28;20638;-79
2023/02/23 06:43:59;;;;;;;21.03;19.00;;;10.80;99.90;;;;;;10472745;28;20213;-80
2023/02/23 06:49:01;;;;;;;19.47;17.57;;;10.80;99.90;;;;;;10449475;28;20682;-80
2023/02/23 06:54:05;;;;;;;16.13;14.63;;;10.80;99.90;;;;;;10462228;28;20259;-80
2023/02/23 06:59:07;;;;;;;16.20;14.80;;;10.80;99.90;;;;;;10459464;28;20240;-80
2023/02/23 07:04:09;;;;;;;14.87;13.57;;;10.80;99.90;;;;;;10448881;28;20247;-79
2023/02/23 07:09:14;;;;;;;14.70;13.43;;;10.80;99.90;;;;;;10458533;28;20209;-80
2023/02/23 07:14:16;;;;;;;15.50;14.10;;;10.80;99.90;;;;;;10449293;28;20216;-80
2023/02/23 07:19:18;;;;;;;14.17;12.87;;;10.90;99.90;;;;;;10448106;28;20194;-79
2023/02/23 07:24:22;;;;;;;14.73;13.30;;;10.90;99.90;;;;;;10462932;28;20210;-78
2023/02/23 07:29:24;;;;;;;15.53;14.03;;;10.90;99.90;;;;;;10464442;28;20385;-79
2023/02/23 07:34:26;;;;;;;17.43;13.83;;;10.90;99.90;;;;;;10448059;28;20218;-79
2023/02/23 07:39:30;;;;;;;15.10;13.60;;;11.00;99.90;;;;;;10464583;28;20198;-79
2023/02/23 07:44:32;;;;;;;15.90;14.50;;;11.10;99.90;;;;;;10431270;28;20218;-80
2023/02/23 07:49:34;;;;;;;18.03;16.10;;;11.30;99.90;;;;;;10462825;28;20256;-80
2023/02/23 07:54:38;;;;;;;17.40;15.70;;;11.50;99.90;;;;;;10462519;28;20699;-80
2023/02/23 07:59:40;;;;;;;15.53;14.17;;;11.60;99.90;;;;;;10426796;28;20186;-77
2023/02/23 08:04:43;;;;;;;21.40;16.07;;;11.70;99.90;;;;;;10463758;28;20690;-80
2023/02/23 08:09:47;;;;;;;16.67;14.93;;;11.80;99.90;;;;;;10442375;28;20283;-80
2023/02/23 08:14:49;;;;;;;22.20;14.73;;;11.80;99.90;;;;;;10425772;28;20631;-81
2023/02/23 08:19:51;;;;;;;17.33;15.63;;;11.80;99.90;;;;;;10426524;28;20293;-81
2023/02/23 08:24:55;;;;;;;16.67;13.90;;;11.80;99.90;;;;;;10487701;22;20321;-85
2023/02/23 08:29:59;;;;;;;15.93;14.33;;;11.90;99.90;;;;;;10520533;28;20220;-85
2023/02/23 08:35:02;;;;;;;14.70;13.20;;;11.90;99.90;;;;;;10498305;28;20221;-85
2023/02/23 08:40:07;;;;;;;15.07;13.60;;;12.00;99.90;;;;;;10467495;28;20284;-85
2023/02/23 08:45:11;;;;;;;15.57;13.97;;;12.00;99.90;;;;;;10448115;28;20218;-85
2023/02/23 08:50:14;;;;;;;15.13;13.73;;;12.20;99.90;;;;;;10460879;28;20209;-85
2023/02/23 08:55:19;;;;;;;15.53;12.30;;;12.20;99.90;;;;;;10497902;28;20300;-85
2023/02/23 09:00:22;;;;;;;13.47;12.00;;;12.20;99.90;;;;;;10462736;28;20193;-85
2023/02/23 09:05:25;;;;;;;22.10;16.23;;;12.30;99.90;;;;;;10461840;28;20220;-85
2023/02/23 09:10:28;;;;;;;18.93;14.57;;;12.30;99.90;;;;;;10464112;28;20243;-84
2023/02/23 09:15:31;;;;;;;15.33;12.53;;;12.40;99.90;;;;;;10481249;28;20217;-84
2023/02/23 09:20:33;;;;;;;12.50;11.20;;;12.50;99.90;;;;;;10482489;28;20653;-85
2023/02/23 09:25:42;;;;;;;13.80;10.70;;;12.60;99.90;;;;;;10466431;28;20265;-84
2023/02/23 09:30:49;;;;;;;11.13;9.70;;;12.70;99.90;;;;;;10466448;28;20213;-84
2023/02/23 09:35:51;;;;;;;14.33;10.30;;;12.90;99.90;;;;;;10476286;28;20256;-84
2023/02/23 09:40:55;;;;;;;10.90;9.77;;;13.00;99.90;;;;;;10473350;28;20225;-85
2023/02/23 09:46:10;;;;;;;14.53;9.90;;;13.20;99.90;;;;;;10466132;28;20213;-85
2023/02/23 09:51:17;;;;;;;11.20;9.73;;;13.20;99.90;;;;;;10483864;28;20810;-85
2023/02/23 09:56:34;;;;;;;13.00;8.83;;;13.40;99.90;;;;;;10506665;28;20255;-85
2023/02/23 10:01:48;;;;;;;13.00;8.20;;;13.40;99.90;;;;;;10474730;28;20189;-84
2023/02/23 10:06:58;;;;;;;7.57;6.93;;;13.50;99.90;;;;;;10463105;28;20762;-84
2023/02/23 10:12:11;;;;;;;8.83;7.90;;;13.70;99.90;;;;;;10461805;28;20255;-85
2023/02/23 10:17:25;;;;;;;12.30;9.00;;;13.80;99.90;;;;;;10494024;28;20255;-85
2023/02/23 10:22:28;;;;;;;13.43;11.77;;;14.00;99.90;;;;;;10459799;28;20208;-85
2023/02/23 10:27:40;;;;;;;12.33;10.60;;;14.10;99.90;;;;;;10460134;28;20248;-83
2023/02/23 10:32:54;;;;;;;10.17;9.10;;;14.20;99.90;;;;;;10477897;28;20274;-84
2023/02/23 10:37:57;;;;;;;8.77;6.40;;;14.20;99.90;;;;;;10462521;28;20686;-83
2023/02/23 10:43:02;;;;;;;10.17;7.00;;;14.30;99.90;;;;;;10465942;28;20185;-84
2023/02/23 10:48:15;;;;;;;7.87;5.63;;;14.30;99.90;;;;;;10466314;28;20613;-84
2023/02/23 10:53:22;;;;;;;7.00;6.30;;;14.40;99.90;;;;;;10501575;28;20225;-84
2023/02/23 10:58:29;;;;;;;6.43;5.47;;;14.40;99.90;;;;;;10507386;28;20216;-85
2023/02/23 11:03:35;;;;;;;7.57;4.20;;;14.50;99.90;;;;;;10485378;28;20215;-85
2023/02/23 11:08:40;;;;;;;12.87;6.10;;;14.50;99.90;;;;;;10487156;28;20222;-85
2023/02/23 11:13:45;;;;;;;7.80;7.07;;;14.60;99.90;;;;;;10439564;28;20217;-85
2023/02/23 11:18:53;;;;;;;13.00;10.70;;;14.70;99.90;;;;;;10474660;28;20640;-85
2023/02/23 11:23:58;;;;;;;14.23;12.90;;;14.80;99.90;;;;;;10477524;28;20569;-84
2023/02/23 11:29:09;;;;;;;13.40;10.60;;;14.80;99.90;;;;;;10488602;28;20203;-84
2023/02/23 11:34:22;;;;;;;10.50;7.90;;;14.90;99.90;;;;;;10477970;28;20192;-83
2023/02/23 11:39:24;;;;;;;12.90;9.03;;;14.90;99.90;;;;;;10489986;28;20723;-84
2023/02/23 11:44:27;;;;;;;16.37;12.20;;;14.90;99.90;;;;;;10498337;28;20213;-84
2023/02/23 11:49:33;;;;;;;12.90;11.60;;;14.80;99.90;;;;;;10472234;28;20241;-84
2023/02/23 11:54:37;;;;;;;13.57;10.07;;;14.80;99.90;;;;;;10491585;28;20567;-84
2023/02/23 11:59:44;;;;;;;11.23;9.77;;;14.80;99.90;;;;;;10510158;28;20200;-84
2023/02/23 12:04:46;;;;;;;11.20;9.77;;;14.70;99.90;;;;;;10479808;28;20217;-84
2023/02/23 12:09:54;;;;;;;14.50;11.47;;;14.80;99.90;;;;;;10472837;28;20248;-84
2023/02/23 12:15:08;;;;;;;12.13;10.00;;;14.80;99.90;;;;;;10489242;28;20205;-84
2023/02/23 12:20:16;;;;;;;12.93;10.30;;;14.80;99.90;;;;;;10498611;28;20200;-84
2023/02/23 12:25:25;;;;;;;13.20;9.87;;;14.70;99.90;;;;;;10498855;28;20258;-85
2023/02/23 12:30:38;;;;;;;12.67;11.33;;;14.60;99.90;;;;;;10464197;28;20707;-85
2023/02/23 12:35:49;;;;;;;11.20;8.67;;;14.50;99.90;;;;;;10464495;28;20223;-83
2023/02/23 12:40:54;;;;;;;13.53;8.90;;;14.50;99.90;;;;;;10486393;28;20189;-84
2023/02/23 12:46:07;;;;;;;8.33;7.63;;;14.40;99.90;;;;;;10468597;28;20232;-85
2023/02/23 12:51:18;;;;;;;12.13;8.53;;;14.40;99.90;;;;;;10463612;28;20217;-85
2023/02/23 12:56:44;;;;;;;11.17;8.70;;;14.40;99.90;;;;;;10479000;28;20217;-85
2023/02/23 13:01:53;;;;;;;11.13;8.60;;;14.40;99.90;;;;;;10460301;28;20190;-85
2023/02/23 13:06:59;;;;;;;9.37;7.47;;;14.30;99.90;;;;;;10458951;28;20218;-84
2023/02/23 13:12:22;;;;;;;9.57;7.33;;;14.30;99.90;;;;;;10485234;28;20213;-84
2023/02/23 13:17:37;;;;;;;8.07;6.70;;;14.40;99.90;;;;;;10482798;28;20217;-84
2023/02/23 13:22:46;;;;;;;12.03;6.70;;;14.40;99.90;;;;;;10498930;28;20239;-84
2023/02/23 13:27:52;;;;;;;9.73;6.13;;;14.40;99.90;;;;;;10484246;28;20229;-84
2023/02/23 13:32:57;;;;;;;7.87;7.00;;;14.40;99.90;;;;;;10464704;28;20213;-84
2023/02/23 13:38:07;;;;;;;7.97;7.13;;;14.40;99.90;;;;;;10465156;28;20221;-84
2023/02/23 13:43:21;;;;;;;10.00;7.93;;;14.40;99.90;;;;;;10479252;28;20532;-84
2023/02/23 13:48:43;;;;;;;7.17;6.40;;;14.40;99.90;;;;;;10463767;28;20213;-84
2023/02/23 13:53:59;;;;;;;9.93;8.60;;;14.30;99.90;;;;;;10482317;28;20231;-84
2023/02/23 13:59:09;;;;;;;11.37;8.87;;;14.30;99.90;;;;;;10482115;28;20276;-85
2023/02/23 14:04:21;;;;;;;14.30;9.83;;;14.30;99.90;;;;;;10467225;28;20594;-83
2023/02/23 14:09:28;;;;;;;11.13;9.33;;;14.30;99.90;;;;;;10489099;28;20200;-85
2023/02/23 14:14:43;;;;;;;11.53;9.97;;;14.20;99.90;;;;;;10466746;28;20673;-85
2023/02/23 14:20:06;;;;;;;10.67;9.53;;;14.20;99.90;;;;;;10485425;28;20197;-84
2023/02/23 14:25:43;;;;;;;9.50;8.33;;;14.10;99.90;;;;;;10508102;22;20216;-78
2023/02/23 14:30:51;;;;;;;8.60;7.73;;;14.10;99.90;;;;;;10512111;28;20369;-81
2023/02/23 14:35:55;;;;;;;13.07;8.80;;;14.00;99.90;;;;;;10538872;28;20304;-78
2023/02/23 14:40:57;;;;;;;13.70;9.63;;;13.90;99.90;;;;;;10512732;28;20225;-78
2023/02/23 14:46:04;;;;;;;10.87;9.10;;;13.90;99.90;;;;;;10493072;28;20215;-77
2023/02/23 14:51:16;;;;;;;11.00;8.17;;;13.90;99.90;;;;;;10510491;28;20217;-79
2023/02/23 14:56:20;;;;;;;8.60;5.87;;;13.90;99.90;;;;;;10474906;28;20224;-81
2023/02/23 15:01:33;;;;;;;8.43;6.50;;;13.90;99.90;;;;;;10472335;28;20229;-81
2023/02/23 15:06:38;;;;;;;6.87;5.20;;;13.80;99.90;;;;;;10473094;28;20205;-78
2023/02/23 15:11:42;;;;;;;7.60;5.37;;;13.80;99.90;;;;;;10491559;28;20253;-77
2023/02/23 15:16:44;;;;;;;5.50;4.90;;;13.90;99.90;;;;;;10490791;28;20625;-79
2023/02/23 15:21:53;;;;;;;7.30;5.43;;;13.90;99.90;;;;;;10488584;28;20189;-79
2023/02/23 15:26:56;;;;;;;8.40;6.37;;;13.90;99.90;;;;;;10473298;28;20233;-80
2023/02/23 15:32:13;;;;;;;8.80;6.87;;;13.90;99.90;;;;;;10507735;28;20219;-79
2023/02/23 15:37:22;;;;;;;7.87;6.60;;;13.90;99.90;;;;;;10473189;28;20308;-81
2023/02/23 15:42:33;;;;;;;9.80;7.17;;;13.90;99.90;;;;;;10389270;28;20198;-80
2023/02/23 15:47:37;;;;;;;13.13;8.13;;;13.90;99.90;;;;;;10503344;28;20217;-78
2023/02/23 15:52:46;;;;;;;11.27;7.67;;;13.90;99.90;;;;;;10490082;28;20214;-78
2023/02/23 15:57:57;;;;;;;9.33;7.87;;;13.80;99.90;;;;;;10517857;28;20559;-79
2023/02/23 16:03:02;;;;;;;8.97;8.13;;;13.80;99.90;;;;;;10471761;28;20677;-79
2023/02/23 16:08:21;;;;;;;10.13;9.03;;;13.70;99.90;;;;;;10473201;28;20244;-81
2023/02/23 16:13:25;;;;;;;10.00;8.90;;;13.60;99.90;;;;;;10510106;28;20217;-78
2023/02/23 16:18:37;;;;;;;9.93;8.90;;;13.60;99.90;;;;;;10491548;28;20215;-78
2023/02/23 16:23:46;;;;;;;13.07;8.97;;;13.50;99.90;;;;;;10494252;28;20257;-78
2023/02/23 16:28:48;;;;;;;9.77;8.77;;;13.40;99.90;;;;;;10492265;28;20229;-77
2023/02/23 16:33:55;;;;;;;10.07;9.07;;;13.40;99.90;;;;;;10509605;28;20231;-79
2023/02/23 16:39:00;;;;;;;10.90;9.10;;;13.30;99.90;;;;;;10508823;28;20209;-78
2023/02/23 16:44:04;;;;;;;13.00;8.73;;;13.30;99.90;;;;;;10508524;28;20195;-79
2023/02/23 16:49:10;;;;;;;11.57;7.93;;;13.20;99.90;;;;;;10489021;28;20213;-79
2023/02/23 16:54:13;;;;;;;11.60;8.63;;;13.20;99.90;;;;;;10483710;28;20217;-79
2023/02/23 16:59:19;;;;;;;9.90;8.97;;;13.20;99.90;;;;;;10467659;28;20730;-78
2023/02/23 17:09:58;;;;;;;10.30;8.13;;;13.10;99.90;;;;;;10500411;28;20273;-79
2023/02/23 17:15:17;;;;;;;12.80;9.00;;;13.00;99.90;;;;;;10485665;28;20223;-79
2023/02/23 17:20:24;;;;;;;12.57;8.50;;;13.00;99.90;;;;;;10467846;28;20194;-81
2023/02/23 17:25:29;;;;;;;11.87;8.87;;;13.00;99.90;;;;;;10501092;28;20221;-82
2023/02/23 17:30:32;;;;;;;14.30;9.80;;;12.90;99.90;;;;;;10466047;28;20205;-78
2023/02/23 17:35:36;;;;;;;11.27;9.70;;;12.90;99.90;;;;;;10483094;28;20298;-79
2023/02/23 17:40:42;;;;;;;11.53;10.30;;;12.90;99.90;;;;;;10474283;28;20602;-78
2023/02/23 17:45:46;;;;;;;13.40;10.00;;;12.90;99.90;;;;;;10468683;28;20328;-82
2023/02/23 17:50:49;;;;;;;18.93;11.07;;;12.90;99.90;;;;;;10489277;28;20205;-80
2023/02/23 17:55:53;;;;;;;12.27;11.03;;;12.90;99.90;;;;;;10487163;28;20212;-80
2023/02/23 18:00:56;;;;;;;13.20;11.47;;;12.90;99.90;;;;;;10486404;28;20680;-77
2023/02/23 18:06:00;;;;;;;12.30;10.97;;;12.90;99.90;;;;;;10478506;28;20688;-78
2023/02/23 18:11:03;;;;;;;11.77;9.77;;;12.90;99.90;;;;;;10481613;28;20224;-78
2023/02/23 18:16:08;;;;;;;14.00;9.80;;;12.90;99.90;;;;;;10499447;28;20213;-78
2023/02/23 18:21:13;;;;;;;12.53;10.70;;;12.80;99.90;;;;;;10498014;28;20193;-79
2023/02/23 18:26:27;;;;;;;14.40;12.17;;;12.80;99.90;;;;;;10464216;28;20304;-79
2023/02/23 18:31:29;;;;;;;13.70;12.30;;;12.80;99.90;;;;;;10480928;28;20302;-77
2023/02/23 18:36:34;;;;;;;14.33;12.07;;;12.70;99.90;;;;;;10480635;28;20326;-77
2023/02/23 18:41:37;;;;;;;20.63;16.00;;;12.60;99.90;;;;;;10464269;28;20552;-77
2023/02/23 18:46:40;;;;;;;15.70;13.20;;;12.50;99.90;;;;;;10463442;28;20723;-77
2023/02/23 18:51:42;;;;;;;16.63;14.90;;;12.40;99.90;;;;;;10435421;28;20221;-78
2023/02/23 18:56:47;;;;;;;19.50;14.47;;;12.40;99.90;;;;;;10498940;28;20300;-77
2023/02/23 19:01:49;;;;;;;18.57;16.63;;;12.30;99.90;;;;;;10463421;28;20198;-82
2023/02/23 19:06:51;;;;;;;16.60;15.00;;;12.30;99.90;;;;;;10473805;28;20205;-82
2023/02/23 19:11:54;;;;;;;18.50;14.67;;;12.20;99.90;;;;;;10479296;28;20245;-79
2023/02/23 19:16:56;;;;;;;17.70;15.20;;;12.20;99.90;;;;;;10482729;28;20332;-78
2023/02/23 19:21:58;;;;;;;17.57;15.77;;;12.10;99.90;;;;;;10471073;28;20201;-78
2023/02/23 19:27:02;;;;;;;18.30;16.60;;;12.10;99.90;;;;;;10485454;28;20316;-78
2023/02/23 19:32:04;;;;;;;20.10;15.73;;;12.10;99.90;;;;;;10471502;28;20225;-79
2023/02/23 19:37:07;;;;;;;23.50;21.00;;;12.00;99.90;;;;;;10505128;28;20644;-77
2023/02/23 19:42:17;;;;;;;21.20;16.90;;;12.00;99.90;;;;;;10471116;28;20197;-81
2023/02/23 19:47:19;;;;;;;18.43;14.93;;;12.00;99.90;;;;;;10486445;28;20216;-78
2023/02/23 19:52:23;;;;;;;17.83;16.03;;;12.00;99.90;;;;;;10504244;28;20214;-79
2023/02/23 19:57:27;;;;;;;24.40;20.00;;;12.00;99.90;;;;;;10504056;28;20209;-79
2023/02/23 20:02:29;;;;;;;22.10;17.30;;;12.00;99.90;;;;;;10503469;28;20189;-78
2023/02/23 20:07:31;;;;;;;30.30;24.80;;;12.00;99.90;;;;;;10468466;28;20225;-77
2023/02/23 20:12:35;;;;;;;21.90;19.70;;;12.00;99.90;;;;;;10503360;28;20253;-78
2023/02/23 20:17:38;;;;;;;22.83;20.53;;;11.90;99.90;;;;;;10483183;28;20213;-81
2023/02/23 20:22:42;;;;;;;19.53;17.33;;;12.00;99.90;;;;;;10478790;28;20204;-76
2023/02/23 20:27:45;;;;;;;19.00;17.10;;;11.90;99.90;;;;;;10517049;22;20553;-83
2023/02/23 20:32:48;;;;;;;20.03;17.93;;;11.90;99.90;;;;;;10498627;28;20220;-84
2023/02/23 20:37:50;;;;;;;18.30;16.50;;;11.90;99.90;;;;;;10501090;28;20240;-83
2023/02/23 20:42:55;;;;;;;18.87;17.10;;;11.90;99.90;;;;;;10486814;28;20194;-82
2023/02/23 20:47:59;;;;;;;15.90;14.50;;;11.90;99.90;;;;;;10485805;28;20678;-83
2023/02/23 20:53:01;;;;;;;16.70;15.20;;;11.90;99.90;;;;;;10469946;28;20205;-82
2023/02/23 20:58:06;;;;;;;16.17;14.47;;;11.80;99.90;;;;;;10486807;28;20232;-83
2023/02/23 21:03:08;;;;;;;17.73;15.33;;;11.90;99.90;;;;;;10466145;28;20236;-85
2023/02/23 21:08:10;;;;;;;15.50;14.00;;;11.90;99.90;;;;;;10448847;28;20212;-84
2023/02/23 21:13:14;;;;;;;16.27;14.63;;;11.80;99.90;;;;;;10487734;28;20216;-84
2023/02/23 21:18:16;;;;;;;15.80;14.20;;;11.80;99.90;;;;;;10502238;28;20778;-82
2023/02/23 21:23:20;;;;;;;15.60;14.07;;;11.70;99.90;;;;;;10467181;28;20196;-83
2023/02/23 21:28:23;;;;;;;17.87;15.37;;;11.70;99.90;;;;;;10481629;28;20270;-82
2023/02/23 21:33:25;;;;;;;16.03;14.40;;;11.70;99.90;;;;;;10484611;28;20677;-82
2023/02/23 21:38:27;;;;;;;16.10;13.73;;;11.70;99.90;;;;;;10467333;28;20228;-82
2023/02/23 21:43:32;;;;;;;14.70;13.40;;;11.60;99.90;;;;;;10499101;28;20216;-83
2023/02/23 21:48:35;;;;;;;14.53;13.13;;;11.60;99.90;;;;;;10484883;28;20229;-82
2023/02/23 21:53:37;;;;;;;15.87;14.27;;;11.60;99.90;;;;;;10487393;28;20713;-83
2023/02/23 21:58:44;;;;;;;16.00;14.50;;;11.50;99.90;;;;;;10505573;28;20247;-85
2023/02/23 22:03:47;;;;;;;17.13;15.43;;;11.50;99.90;;;;;;10486908;28;20200;-83
2023/02/23 22:08:49;;;;;;;15.57;14.00;;;11.40;99.90;;;;;;10456607;28;20323;-83
2023/02/23 22:13:57;;;;;;;17.80;15.10;;;11.40;99.90;;;;;;10504972;28;20221;-81
2023/02/23 22:19:02;;;;;;;17.30;15.03;;;11.40;99.90;;;;;;10487626;28;20307;-82
2023/02/23 22:24:06;;;;;;;17.97;16.17;;;11.40;99.90;;;;;;10484335;28;20278;-84
2023/02/23 22:29:10;;;;;;;16.87;15.27;;;11.30;99.90;;;;;;10500245;28;20225;-85
2023/02/23 22:34:12;;;;;;;20.10;16.70;;;11.30;99.90;;;;;;10485260;28;20225;-83
2023/02/23 22:39:17;;;;;;;20.73;18.60;;;11.40;99.90;;;;;;10501284;28;20312;-85
2023/02/23 22:44:21;;;;;;;20.07;17.97;;;11.40;99.90;;;;;;10488441;28;20193;-83
2023/02/23 22:49:25;;;;;;;23.97;20.57;;;11.30;99.90;;;;;;10485043;28;20236;-83
2023/02/23 22:54:27;;;;;;;21.27;19.10;;;11.40;99.90;;;;;;10491497;28;20560;-83
2023/02/23 22:59:31;;;;;;;24.20;20.63;;;11.40;99.90;;;;;;10495634;28;20699;-83
2023/02/23 23:04:34;;;;;;;24.13;21.10;;;11.40;99.90;;;;;;10486842;28;20288;-84
2023/02/23 23:09:38;;;;;;;49.03;34.53;;;11.50;99.90;;;;;;10467599;28;20622;-85
2023/02/23 23:14:41;;;;;;;30.10;23.77;;;11.50;99.90;;;;;;10466552;28;20240;-84
2023/02/23 23:19:44;;;;;;;24.67;22.07;;;11.50;99.90;;;;;;10481813;28;20691;-84
2023/02/23 23:24:47;;;;;;;25.07;22.47;;;11.50;99.90;;;;;;10491229;28;20193;-83
2023/02/23 23:29:51;;;;;;;27.60;24.70;;;11.50;99.90;;;;;;10511124;28;20207;-84
2023/02/23 23:34:56;;;;;;;27.57;24.57;;;11.50;99.90;;;;;;10498536;28;20495;-84
2023/02/23 23:40:00;;;;;;;30.03;26.03;;;11.50;99.90;;;;;;10495363;28;20197;-84
2023/02/23 23:45:08;;;;;;;35.63;26.67;;;11.50;99.90;;;;;;10485217;28;20746;-83
2023/02/23 23:50:11;;;;;;;29.30;25.80;;;11.50;99.90;;;;;;10515064;28;20264;-83
2023/02/23 23:55:15;;;;;;;30.07;26.50;;;11.50;99.90;;;;;;10432731;28;20221;-84
